Share

Sauk Centre, MN

12:57 AM CDT on April 25, 2014 (GMT -0500)
Sauk Centre (KMNSAUKC3) Elev 1253 ft | 45.74 °N, 94.96 °W | Change Station

Current weather conditions updated 2 seconds ago

Clear
Clear
37.4 °F
Feels Like 35 °F
N
3.1
Wind Variable Wind from SW
Gusts 6.0 mph
Sunrise 6:17 AM
Sunset 8:19 PM
Moon Waning Crescent

Today is forecast to be Much Warmer than yesterday.

Pressure 29.70 in
Visibility 4.0 miles
Clouds Clear
Windchill 35 °F
Dew Point 37 °F
Humidity 99%
Rainfall 0.00 in
Snow Depth Not available.
UV 0 out of 16
Pollen 1.90 out of 12
Air Quality Not available.
Flu Activity Sporadic
METAR KD39 250552Z AUTO 00000KT 4SM BR CLR 01/01 A2970 RMK AO2 T00100010 10067 20001 400670001

More Conditions Fewer Conditions

Pressure 29.70 in
Visibility 4.0 miles
Clouds Clear
Windchill 35 °F
Dew Point 37 °F
Humidity 99%
Rainfall 0.00 in
Snow Depth Not available.
UV 0 out of 16
Pollen 1.90 out of 12
Air Quality Not available.
Flu Activity Sporadic
METAR KD39 250552Z AUTO 00000KT 4SM BR CLR 01/01 A2970 RMK AO2 T00100010 10067 20001 400670001

More Conditions Fewer Conditions

10-Day Weather Forecast

Almanac

Astronomy

Apr. 25, 2014 Rise Set
Actual Time 6:17 AM CDT 8:19 PM CDT
Civil Twilight 5:44 AM CDT 8:51 PM CDT
Nautical Twilight 5:05 AM CDT 9:31 PM CDT
Astronomical Twilight 4:21 AM CDT 10:15 PM CDT
Moon 4:18 AM CDT 4:31 PM CDT
Length of Visible Light 15h 06m
Length of Day
14h 02m
Tomorrow will be 2m 56s longer.
Waning Crescent, 19% of the Moon is Illuminated
Today
Waning Crescent
Apr 29
New
May 6
First Quarter
May 14
Full
May 21
Last Quarter

Today's Extremes

State Highs State Lows

Community

  • Deer in evening light
    Deer in evening light
  • Critter
    Critter
  • Jone Runs Falls
    Jone Runs Falls
  • Easter in Shenandoah National Park
    Easter in Shenandoah National Park
  • Sunset at Apalachicola Bay, Florida
    Sunset at Apalachicola Bay, Florida

WunderPhotos

Upload Photos

1,704,861 photos uploaded!

WunderBlogs® & News

Nearby

Snow Depth

Station Depth Elevation
No new snow has been reported.

Coastal Water Temperatures

Place Temperature
No Stations Reporting

Earthquake Activity

City Distance Mag. Time & Date
No recent earthquake activity has been reported nearby.
Minimum magnitude displayed is 2.5.

Nearby Weather Stations

Station Location Temp. Windchill Dew Point Humidity Wind Precip. Elev Updated Type
Sauk Centre, Sauk Centre, MN 37.4 °F 35 °F 37 °F 99% SW  at  3.1 mph 0.00 in / hr 1253 ft 12:57 AM CDT Rapid Fire
Grey Eagle, MN 36.7 °F 37 °F 35 °F 95% SW  at  2.2 mph - / hr 1214 ft 12:45 AM CDT Normal
Sibley, New London, MN 36.3 °F 36 °F 36 °F 99% ESE  at  0.0 mph - / hr 1260 ft 12:50 AM CDT Normal

Show More Stations Show Fewer Stations

What do you think?

We're not finished. Please let us know what you like, what you don't like, and what you are still missing.